createdAt,value
2019-03-26T00:01:22.242Z,58.65
2019-03-26T00:04:05.252Z,59.25
2019-03-26T00:06:30.793Z,60.00
2019-03-26T00:09:07.012Z,59.96
2019-03-26T00:11:40.507Z,60.20
2019-03-26T00:14:13.913Z,60.10
2019-03-26T00:16:47.368Z,60.15
2019-03-26T00:19:20.709Z,60.73
2019-03-26T00:21:54.532Z,61.01
2019-03-26T00:24:28.085Z,61.25
2019-03-26T00:27:01.524Z,61.50
2019-03-26T00:29:34.980Z,61.71
2019-03-26T00:32:09.468Z,61.63
2019-03-26T00:34:42.829Z,62.15
2019-03-26T00:37:16.320Z,62.21
2019-03-26T00:39:49.754Z,62.29
2019-03-26T00:42:23.186Z,62.08
2019-03-26T00:44:56.684Z,62.06
2019-03-26T00:47:30.383Z,61.77
2019-03-26T00:50:04.811Z,61.82
2019-03-26T00:52:38.229Z,61.74
2019-03-26T00:55:21.926Z,61.82
2019-03-26T00:57:47.061Z,61.81
2019-03-26T01:00:29.278Z,61.84
2019-03-26T01:03:02.717Z,61.83
2019-03-26T01:05:36.277Z,61.81
2019-03-26T01:08:09.785Z,61.83
2019-03-26T01:10:43.296Z,62.10
2019-03-26T01:13:16.671Z,61.72
2019-03-26T01:15:50.046Z,61.57
2019-03-26T01:18:23.458Z,61.39
2019-03-26T01:20:56.969Z,61.87
2019-03-26T01:23:30.392Z,61.36
2019-03-26T01:26:03.828Z,61.00
2019-03-26T01:28:37.162Z,61.00
2019-03-26T01:31:10.549Z,60.80
2019-03-26T01:33:43.876Z,60.97
2019-03-26T01:36:17.343Z,61.00
2019-03-26T01:38:50.682Z,60.64
2019-03-26T01:41:24.269Z,60.31
2019-03-26T01:43:57.617Z,60.31
2019-03-26T01:46:31.128Z,60.22
2019-03-26T01:49:04.520Z,59.89
2019-03-26T01:51:37.955Z,59.89
2019-03-26T01:54:11.426Z,59.87
2019-03-26T01:56:44.871Z,59.89
2019-03-26T01:59:18.379Z,60.02
2019-03-26T02:01:51.762Z,59.90
2019-03-26T02:04:25.387Z,59.93
2019-03-26T02:06:58.763Z,59.87
2019-03-26T02:09:32.165Z,59.93
2019-03-26T02:12:05.697Z,59.69
2019-03-26T02:14:39.252Z,59.69
2019-03-26T02:17:12.796Z,60.08
2019-03-26T02:19:46.430Z,60.02
2019-03-26T02:22:20.156Z,59.89
2019-03-26T02:24:53.667Z,59.56
2019-03-26T02:27:27.092Z,59.42
2019-03-26T02:30:00.475Z,59.00
2019-03-26T02:32:33.831Z,59.14
2019-03-26T02:35:17.628Z,59.06
2019-03-26T02:37:42.561Z,58.84
2019-03-26T02:40:16.163Z,58.66
2019-03-26T02:42:49.838Z,58.41
2019-03-26T02:45:23.388Z,58.56
2019-03-26T02:47:57.044Z,58.56
2019-03-26T02:50:30.507Z,58.23
2019-03-26T02:53:08.407Z,57.94
2019-03-26T02:55:39.666Z,58.24
2019-03-26T02:58:13.105Z,58.01
2019-03-26T03:00:46.680Z,58.01
2019-03-26T03:03:20.330Z,57.97
2019-03-26T03:05:53.776Z,57.94
2019-03-26T03:08:27.919Z,57.94
2019-03-26T03:11:01.519Z,57.62
2019-03-26T03:13:35.131Z,57.65
2019-03-26T03:16:08.732Z,57.57
2019-03-26T03:18:42.255Z,57.60
2019-03-26T03:21:15.839Z,57.52
2019-03-26T03:23:49.291Z,57.96
2019-03-26T03:26:22.749Z,57.96
2019-03-26T03:28:56.292Z,57.62
2019-03-26T03:31:29.676Z,57.27
2019-03-26T03:34:03.213Z,57.27
2019-03-26T03:36:36.633Z,57.12
2019-03-26T03:39:10.079Z,56.75
2019-03-26T03:41:43.609Z,56.85
2019-03-26T03:44:17.072Z,57.27
2019-03-26T03:46:51.253Z,57.27
2019-03-26T03:49:26.119Z,56.42
2019-03-26T03:52:01.219Z,56.42
2019-03-26T03:54:35.122Z,56.32
2019-03-26T03:57:09.006Z,56.57
2019-03-26T03:59:44.308Z,56.50
2019-03-26T04:02:18.048Z,56.40
2019-03-26T04:04:51.474Z,56.45
2019-03-26T04:07:25.087Z,56.47
2019-03-26T04:09:58.672Z,56.47
2019-03-26T04:12:32.348Z,56.43
2019-03-26T04:15:06.577Z,56.50
2019-03-26T04:17:40.113Z,56.33
2019-03-26T04:20:13.607Z,56.33
2019-03-26T04:22:47.135Z,56.33
2019-03-26T04:25:20.560Z,56.60
2019-03-26T04:27:54.008Z,56.60
2019-03-26T04:30:29.854Z,56.52
2019-03-26T04:33:03.304Z,56.77
2019-03-26T04:35:36.806Z,56.75
2019-03-26T04:38:10.157Z,56.91
2019-03-26T04:40:43.605Z,56.66
2019-03-26T04:43:18.948Z,56.55
2019-03-26T04:45:52.115Z,56.55
2019-03-26T04:48:25.576Z,56.44
2019-03-26T04:50:59.117Z,56.59
2019-03-26T04:53:34.211Z,56.60
2019-03-26T04:56:07.785Z,56.57
2019-03-26T04:58:43.888Z,56.61
2019-03-26T05:01:16.386Z,56.63
2019-03-26T05:03:49.821Z,56.49
2019-03-26T05:06:37.182Z,56.65
2019-03-26T05:08:59.099Z,56.46
2019-03-26T05:11:32.436Z,56.46
2019-03-26T05:14:05.826Z,56.70
2019-03-26T05:16:39.262Z,56.78
2019-03-26T05:19:12.627Z,56.88
2019-03-26T05:21:46.062Z,56.87
2019-03-26T05:24:19.527Z,56.83
2019-03-26T05:26:52.885Z,57.01
2019-03-26T05:29:26.427Z,57.17
2019-03-26T05:31:59.851Z,57.07
2019-03-26T05:34:33.299Z,57.30
2019-03-26T05:37:06.736Z,57.56
2019-03-26T05:39:40.284Z,57.60
2019-03-26T05:42:13.765Z,57.61
2019-03-26T05:44:47.249Z,57.51
2019-03-26T05:47:20.739Z,57.31
2019-03-26T05:49:54.185Z,57.51
2019-03-26T05:52:27.661Z,57.22
2019-03-26T05:55:01.121Z,57.06
2019-03-26T05:57:35.179Z,57.07
2019-03-26T06:00:12.816Z,56.95
2019-03-26T06:02:46.320Z,56.95
2019-03-26T06:05:19.853Z,56.89
2019-03-26T06:07:53.430Z,57.07
2019-03-26T06:10:26.995Z,57.11
2019-03-26T06:13:00.438Z,57.08
2019-03-26T06:15:34.035Z,57.21
2019-03-26T06:18:07.550Z,57.30
2019-03-26T06:20:41.033Z,56.81
2019-03-26T06:23:14.554Z,57.17
2019-03-26T06:25:48.011Z,57.12
2019-03-26T06:28:23.089Z,57.01
2019-03-26T06:30:56.560Z,56.64
2019-03-26T06:33:30.060Z,55.96
2019-03-26T06:36:03.682Z,55.44
2019-03-26T06:38:37.094Z,55.14
2019-03-26T06:41:10.639Z,55.61
2019-03-26T06:43:44.210Z,55.27
2019-03-26T06:46:17.657Z,55.59
2019-03-26T06:48:51.070Z,55.40
2019-03-26T06:51:24.656Z,55.60
2019-03-26T06:53:58.069Z,55.65
2019-03-26T06:56:31.516Z,55.80
2019-03-26T06:59:06.328Z,55.59
2019-03-26T07:01:39.774Z,56.01
2019-03-26T07:04:13.361Z,56.03
2019-03-26T07:06:46.897Z,55.70
2019-03-26T07:09:20.364Z,55.91
2019-03-26T07:11:53.828Z,55.87
2019-03-26T07:14:27.316Z,55.55
2019-03-26T07:17:00.846Z,54.70
2019-03-26T07:19:34.351Z,54.36
2019-03-26T07:22:07.811Z,52.62
2019-03-26T07:24:41.226Z,51.83
2019-03-26T07:27:14.742Z,51.61
2019-03-26T07:29:48.239Z,52.37
2019-03-26T07:32:21.728Z,52.30
2019-03-26T07:34:55.165Z,52.68
2019-03-26T07:37:28.575Z,52.55
2019-03-26T07:40:01.992Z,52.93
2019-03-26T07:42:35.466Z,52.59
2019-03-26T07:45:09.165Z,52.71
2019-03-26T07:47:42.641Z,53.32
2019-03-26T07:50:16.056Z,53.07
2019-03-26T07:52:49.687Z,52.91
2019-03-26T07:55:23.167Z,52.07
2019-03-26T07:57:56.685Z,50.83
2019-03-26T08:00:35.152Z,51.83
2019-03-26T08:03:08.762Z,51.16
2019-03-26T08:05:42.392Z,51.07
2019-03-26T08:08:15.857Z,51.33
2019-03-26T08:10:49.270Z,51.87
2019-03-26T08:13:22.661Z,51.11
2019-03-26T08:15:56.109Z,51.23
2019-03-26T08:18:29.631Z,51.49
2019-03-26T08:21:03.138Z,49.88
2019-03-26T08:23:38.470Z,49.25
2019-03-26T08:26:11.672Z,49.65
2019-03-26T08:28:45.122Z,49.41
2019-03-26T08:31:18.475Z,48.75
2019-03-26T08:33:51.889Z,48.39
2019-03-26T08:36:25.428Z,49.16
2019-03-26T08:38:58.965Z,49.83
2019-03-26T08:41:32.458Z,49.23
2019-03-26T08:44:05.904Z,48.87
2019-03-26T08:46:39.330Z,48.57
2019-03-26T08:49:14.201Z,47.90
2019-03-26T08:51:47.870Z,48.45
2019-03-26T08:54:21.326Z,48.28
2019-03-26T08:56:54.877Z,46.55
2019-03-26T08:59:28.427Z,46.85
2019-03-26T09:02:01.992Z,45.64
2019-03-26T09:04:35.403Z,46.13
2019-03-26T09:07:11.022Z,46.19
2019-03-26T09:09:44.136Z,46.36
2019-03-26T09:12:17.614Z,46.92
2019-03-26T09:14:51.110Z,46.07
2019-03-26T09:17:24.581Z,45.12
2019-03-26T09:19:58.004Z,46.00
2019-03-26T09:22:31.450Z,47.22
2019-03-26T09:25:06.333Z,48.14
2019-03-26T09:27:39.787Z,48.28
2019-03-26T09:30:13.502Z,48.16
2019-03-26T09:32:46.906Z,48.62
2019-03-26T09:35:20.354Z,48.45
2019-03-26T09:37:53.817Z,49.00
2019-03-26T09:40:27.272Z,49.97
2019-03-26T09:43:00.726Z,51.65
2019-03-26T09:45:34.138Z,52.29
2019-03-26T09:48:07.606Z,53.61
2019-03-26T09:50:40.953Z,54.65
2019-03-26T09:53:14.328Z,54.46
2019-03-26T09:55:47.754Z,55.06
2019-03-26T09:58:21.205Z,55.06
2019-03-26T10:00:54.784Z,55.13
2019-03-26T10:03:28.345Z,55.45
2019-03-26T10:06:01.904Z,55.59
2019-03-26T10:08:35.393Z,50.17
2019-03-26T10:11:08.903Z,47.69
2019-03-26T10:13:42.439Z,46.27
2019-03-26T10:16:16.412Z,43.45
2019-03-26T10:18:49.797Z,39.95
2019-03-26T10:21:23.143Z,40.85
2019-03-26T10:23:57.006Z,40.76
2019-03-26T10:26:30.351Z,40.48
2019-03-26T10:29:18.718Z,40.21
2019-03-26T10:31:39.043Z,39.85
2019-03-26T10:34:12.494Z,40.46
2019-03-26T10:36:46.240Z,40.85
2019-03-26T10:39:19.607Z,41.99
2019-03-26T10:41:53.044Z,41.67
2019-03-26T10:44:26.527Z,42.43
2019-03-26T10:47:00.073Z,44.12
2019-03-26T10:49:33.512Z,44.52
2019-03-26T10:52:07.061Z,45.53
2019-03-26T10:54:40.542Z,46.88
2019-03-26T10:57:13.885Z,47.60
2019-03-26T10:59:47.294Z,49.35
2019-03-26T11:02:20.661Z,51.32
2019-03-26T11:04:54.111Z,52.63
2019-03-26T11:07:27.646Z,52.96
2019-03-26T11:10:01.072Z,53.83
2019-03-26T11:12:34.535Z,53.98
2019-03-26T11:15:09.149Z,55.68
2019-03-26T11:17:42.716Z,55.73
2019-03-26T11:20:16.301Z,54.40
2019-03-26T11:22:49.792Z,54.44
2019-03-26T11:25:23.310Z,53.04
2019-03-26T11:27:56.767Z,52.12
2019-03-26T11:30:30.219Z,50.90
2019-03-26T11:33:03.779Z,51.68
2019-03-26T11:35:37.229Z,50.00
2019-03-26T11:38:10.821Z,49.28
2019-03-26T11:40:44.350Z,49.01
2019-03-26T11:43:17.834Z,49.78
2019-03-26T11:45:51.274Z,48.90
2019-03-26T11:48:24.723Z,48.82
2019-03-26T11:50:58.065Z,49.69
2019-03-26T11:53:31.523Z,49.67
2019-03-26T11:56:05.045Z,49.96
2019-03-26T11:58:38.498Z,49.73
2019-03-26T12:01:11.981Z,49.75
2019-03-26T12:03:45.357Z,49.48
2019-03-26T12:06:18.791Z,49.11
2019-03-26T12:08:52.343Z,49.61
2019-03-26T12:11:25.788Z,49.77
2019-03-26T12:13:59.301Z,49.44
2019-03-26T12:16:32.648Z,49.08
2019-03-26T12:19:06.163Z,48.60
2019-03-26T12:21:39.569Z,48.73
2019-03-26T12:24:13.042Z,48.69
2019-03-26T12:26:46.514Z,48.99
2019-03-26T12:29:19.961Z,49.28
2019-03-26T12:31:53.409Z,49.98
2019-03-26T12:34:26.797Z,49.73
2019-03-26T12:37:00.300Z,49.50
2019-03-26T12:39:33.726Z,49.59
2019-03-26T12:42:07.259Z,49.52
2019-03-26T12:44:40.665Z,48.32
2019-03-26T12:47:14.005Z,49.68
2019-03-26T12:49:47.435Z,49.18
2019-03-26T12:52:20.913Z,49.31
2019-03-26T12:54:54.414Z,49.38
2019-03-26T12:57:27.878Z,49.28
2019-03-26T13:00:01.457Z,49.49
2019-03-26T13:02:36.105Z,49.38
2019-03-26T13:05:09.771Z,48.98
2019-03-26T13:07:43.136Z,47.56
2019-03-26T13:10:16.741Z,46.27
2019-03-26T13:12:50.170Z,47.43
2019-03-26T13:15:23.537Z,47.76
2019-03-26T13:17:57.063Z,47.57
2019-03-26T13:20:30.547Z,47.89
2019-03-26T13:23:04.061Z,47.21
2019-03-26T13:25:37.519Z,45.54
2019-03-26T13:28:11.013Z,45.80
2019-03-26T13:30:44.430Z,44.63
2019-03-26T13:33:17.877Z,44.91
2019-03-26T13:35:51.284Z,45.81
2019-03-26T13:38:24.763Z,45.80
2019-03-26T13:40:58.137Z,45.94
2019-03-26T13:43:31.609Z,45.70
2019-03-26T13:46:05.053Z,45.84
2019-03-26T13:48:38.504Z,46.16
2019-03-26T13:51:13.415Z,46.22
2019-03-26T13:53:46.841Z,45.85
2019-03-26T13:56:20.257Z,46.33
2019-03-26T13:58:53.708Z,45.67
2019-03-26T14:01:27.193Z,47.11
2019-03-26T14:04:00.667Z,47.41
2019-03-26T14:06:34.069Z,47.51
2019-03-26T14:09:08.133Z,47.19
2019-03-26T14:11:41.540Z,47.56
2019-03-26T14:14:14.995Z,47.79
2019-03-26T14:16:48.408Z,47.53
2019-03-26T14:19:21.792Z,47.44
2019-03-26T14:21:55.231Z,47.37
2019-03-26T14:24:28.719Z,47.69
2019-03-26T14:27:02.174Z,47.70
2019-03-26T14:29:35.703Z,48.05
2019-03-26T14:32:09.181Z,47.80
2019-03-26T14:34:42.586Z,48.23
2019-03-26T14:37:16.131Z,48.31
2019-03-26T14:39:49.545Z,48.83
2019-03-26T14:42:22.960Z,49.62
2019-03-26T14:44:56.495Z,49.55
2019-03-26T14:47:29.839Z,50.06
2019-03-26T14:50:03.647Z,50.11
2019-03-26T14:52:37.065Z,50.46
2019-03-26T14:55:10.509Z,50.22
2019-03-26T14:57:43.969Z,50.05
2019-03-26T15:00:17.566Z,49.68
2019-03-26T15:02:51.054Z,50.00
2019-03-26T15:05:24.525Z,49.98
2019-03-26T15:07:57.870Z,49.72
2019-03-26T15:10:31.318Z,49.87
2019-03-26T15:13:04.725Z,49.65
2019-03-26T15:15:40.625Z,50.03
2019-03-26T15:18:14.178Z,49.86
2019-03-26T15:20:47.759Z,49.65
2019-03-26T15:23:21.251Z,49.07
2019-03-26T15:25:54.701Z,49.13
2019-03-26T15:28:28.220Z,48.04
2019-03-26T15:31:01.776Z,47.91
2019-03-26T15:33:35.265Z,48.57
2019-03-26T15:36:08.644Z,48.48
2019-03-26T15:38:42.062Z,48.20
2019-03-26T15:41:21.397Z,47.89
2019-03-26T15:43:50.523Z,48.52
2019-03-26T15:46:23.981Z,48.22
2019-03-26T15:48:57.478Z,48.52
2019-03-26T15:51:30.943Z,48.42
2019-03-26T15:54:04.379Z,48.31
2019-03-26T15:56:37.753Z,48.40
2019-03-26T15:59:11.098Z,49.07
2019-03-26T16:01:44.584Z,49.14
2019-03-26T16:04:17.891Z,48.92
2019-03-26T16:06:51.427Z,49.81
2019-03-26T16:09:24.928Z,49.19
2019-03-26T16:12:00.035Z,49.63
2019-03-26T16:14:33.591Z,49.67
2019-03-26T16:17:07.042Z,49.88
2019-03-26T16:19:40.560Z,49.85
2019-03-26T16:22:14.092Z,49.43
2019-03-26T16:24:47.552Z,49.90
2019-03-26T16:27:20.952Z,49.84
2019-03-26T16:29:54.357Z,49.83
2019-03-26T16:32:27.772Z,50.05
2019-03-26T16:35:01.205Z,49.79
2019-03-26T16:37:34.741Z,50.18
2019-03-26T16:40:08.406Z,50.47
2019-03-26T16:42:41.840Z,50.48
2019-03-26T16:45:15.367Z,50.37
2019-03-26T16:47:48.764Z,51.07
2019-03-26T16:50:22.216Z,51.08
2019-03-26T16:52:55.703Z,51.40
2019-03-26T16:55:29.107Z,51.69
2019-03-26T16:58:02.471Z,52.68
2019-03-26T17:00:36.017Z,52.89
2019-03-26T17:03:09.449Z,53.20
2019-03-26T17:05:42.818Z,53.17
2019-03-26T17:08:16.308Z,52.81
2019-03-26T17:10:49.735Z,52.87
2019-03-26T17:13:23.184Z,53.16
2019-03-26T17:15:56.633Z,53.11
2019-03-26T17:18:30.079Z,53.30
2019-03-26T17:21:03.591Z,53.07
2019-03-26T17:23:37.022Z,53.52
2019-03-26T17:26:10.871Z,53.55
2019-03-26T17:28:44.289Z,53.41
2019-03-26T17:31:17.722Z,53.68
2019-03-26T17:33:51.272Z,53.45
2019-03-26T17:36:24.771Z,53.79
2019-03-26T17:38:58.180Z,53.74
2019-03-26T17:41:31.644Z,54.58
2019-03-26T17:44:06.373Z,54.58
2019-03-26T17:46:39.962Z,54.73
2019-03-26T17:49:13.473Z,54.67
2019-03-26T17:51:46.946Z,55.28
2019-03-26T17:54:20.283Z,55.36
2019-03-26T17:56:53.728Z,55.44
2019-03-26T17:59:27.134Z,55.57
2019-03-26T18:02:00.727Z,55.56
2019-03-26T18:04:34.127Z,55.67
2019-03-26T18:07:07.517Z,56.08
2019-03-26T18:09:40.948Z,56.56
2019-03-26T18:12:14.519Z,56.65
2019-03-26T18:14:47.975Z,56.78
2019-03-26T18:17:21.492Z,56.65
2019-03-26T18:19:54.909Z,56.64
2019-03-26T18:22:28.356Z,56.90
2019-03-26T18:25:01.704Z,56.84
2019-03-26T18:27:35.181Z,56.82
2019-03-26T18:30:08.862Z,56.81
2019-03-26T18:32:42.391Z,57.03
2019-03-26T18:35:15.877Z,57.25
2019-03-26T18:37:49.426Z,57.13
2019-03-26T18:40:22.811Z,57.32
2019-03-26T18:42:56.348Z,57.46
2019-03-26T18:45:29.768Z,57.41
2019-03-26T18:48:03.287Z,57.35
2019-03-26T18:50:36.714Z,57.32
2019-03-26T18:53:10.150Z,57.42
2019-03-26T18:55:43.630Z,57.50
2019-03-26T18:58:17.159Z,57.23
2019-03-26T19:00:50.657Z,57.38
2019-03-26T19:03:24.082Z,57.34
2019-03-26T19:05:57.546Z,57.34
2019-03-26T19:08:30.902Z,57.04
2019-03-26T19:11:04.434Z,57.41
2019-03-26T19:13:37.846Z,57.51
2019-03-26T19:16:11.314Z,57.25
2019-03-26T19:18:44.729Z,57.14
2019-03-26T19:21:18.122Z,57.11
2019-03-26T19:24:03.353Z,57.13
2019-03-26T19:26:27.471Z,56.77
2019-03-26T19:29:01.312Z,57.33
2019-03-26T19:31:34.708Z,56.96
2019-03-26T19:34:08.321Z,56.77
2019-03-26T19:36:41.801Z,56.46
2019-03-26T19:39:15.314Z,56.45
2019-03-26T19:41:48.810Z,56.33
2019-03-26T19:44:22.251Z,56.18
2019-03-26T19:46:55.797Z,56.22
2019-03-26T19:49:29.231Z,55.83
2019-03-26T19:52:02.860Z,55.83
2019-03-26T19:54:36.213Z,56.17
2019-03-26T19:57:09.586Z,55.67
2019-03-26T19:59:43.170Z,55.37
2019-03-26T20:02:16.616Z,55.54
2019-03-26T20:04:50.119Z,56.36
2019-03-26T20:07:23.914Z,55.74
2019-03-26T20:09:57.262Z,55.61
2019-03-26T20:12:30.657Z,55.23
2019-03-26T20:15:06.671Z,55.20
2019-03-26T20:17:40.117Z,54.91
2019-03-26T20:20:14.313Z,54.68
2019-03-26T20:22:49.293Z,54.40
2019-03-26T20:25:22.686Z,54.59
2019-03-26T20:27:56.431Z,54.37
2019-03-26T20:30:29.917Z,54.30
2019-03-26T20:33:03.364Z,54.08
2019-03-26T20:35:37.034Z,54.06
2019-03-26T20:38:10.577Z,53.93
2019-03-26T20:40:44.075Z,53.79
2019-03-26T20:43:17.660Z,53.93
2019-03-26T20:45:51.468Z,53.92
2019-03-26T20:48:25.270Z,54.00
2019-03-26T20:50:58.754Z,53.93
2019-03-26T20:53:32.224Z,53.89
2019-03-26T20:56:06.157Z,53.89
2019-03-26T20:58:39.603Z,54.08
2019-03-26T21:01:12.963Z,54.19
2019-03-26T21:03:46.512Z,54.15
2019-03-26T21:06:20.009Z,54.03
2019-03-26T21:08:53.391Z,54.09
2019-03-26T21:11:26.813Z,54.44
2019-03-26T21:14:00.255Z,54.65
2019-03-26T21:16:33.676Z,54.47
2019-03-26T21:19:07.188Z,54.34
2019-03-26T21:21:40.686Z,54.45
2019-03-26T21:24:14.071Z,54.52
2019-03-26T21:26:47.589Z,54.53
2019-03-26T21:29:21.065Z,54.59
2019-03-26T21:31:54.525Z,54.47
2019-03-26T21:34:30.764Z,54.78
2019-03-26T21:37:03.349Z,55.01
2019-03-26T21:39:36.931Z,55.09
2019-03-26T21:42:10.449Z,55.04
2019-03-26T21:44:43.866Z,55.27
2019-03-26T21:47:17.267Z,55.17
2019-03-26T21:49:50.839Z,55.25
2019-03-26T21:52:24.215Z,55.29
2019-03-26T21:54:57.560Z,55.45
2019-03-26T21:57:31.180Z,55.50
2019-03-26T22:00:07.203Z,55.86
2019-03-26T22:02:40.704Z,55.99
2019-03-26T22:05:14.184Z,55.59
2019-03-26T22:07:47.580Z,55.91
2019-03-26T22:10:20.963Z,55.71
2019-03-26T22:12:54.426Z,55.59
2019-03-26T22:15:27.904Z,55.63
2019-03-26T22:18:01.356Z,55.69
2019-03-26T22:20:34.861Z,55.60
2019-03-26T22:23:08.478Z,55.86
2019-03-26T22:25:41.915Z,55.78
2019-03-26T22:28:15.291Z,55.73
2019-03-26T22:30:48.612Z,55.80
2019-03-26T22:33:22.084Z,55.89
2019-03-26T22:35:56.158Z,55.87
2019-03-26T22:38:29.888Z,55.85
2019-03-26T22:41:03.328Z,55.72
2019-03-26T22:43:36.792Z,55.83
2019-03-26T22:46:10.192Z,55.94
2019-03-26T22:48:43.655Z,56.01
2019-03-26T22:51:17.071Z,56.14
2019-03-26T22:53:50.457Z,56.24
2019-03-26T22:56:23.814Z,56.37
2019-03-26T22:58:57.272Z,56.50
2019-03-26T23:01:30.686Z,56.67
2019-03-26T23:04:04.152Z,56.63
2019-03-26T23:06:37.635Z,56.53
2019-03-26T23:09:11.182Z,56.62
2019-03-26T23:11:44.661Z,56.74
2019-03-26T23:14:18.178Z,56.54
2019-03-26T23:16:51.665Z,56.57
2019-03-26T23:19:25.183Z,56.44
2019-03-26T23:21:58.577Z,56.41
2019-03-26T23:24:32.048Z,56.50
2019-03-26T23:27:05.855Z,56.64
2019-03-26T23:29:39.250Z,56.62
2019-03-26T23:32:12.673Z,56.83
2019-03-26T23:34:46.127Z,56.80
2019-03-26T23:37:19.570Z,56.68
2019-03-26T23:39:52.967Z,56.63
2019-03-26T23:42:26.308Z,56.55
2019-03-26T23:44:59.758Z,56.81
2019-03-26T23:47:33.185Z,57.47
2019-03-26T23:50:07.523Z,57.70
2019-03-26T23:52:40.897Z,57.50
2019-03-26T23:55:14.411Z,57.25
2019-03-26T23:57:47.770Z,57.13
